createdAt,value
2022-10-17T00:00:05.858Z,73.81
2022-10-17T00:02:58.377Z,74.10
2022-10-17T00:05:27.965Z,74.08
2022-10-17T00:07:57.121Z,74.39
2022-10-17T00:10:26.481Z,74.53
2022-10-17T00:12:55.682Z,74.52
2022-10-17T00:15:24.033Z,74.51
2022-10-17T00:17:53.846Z,74.69
2022-10-17T00:20:23.235Z,74.80
2022-10-17T00:22:52.661Z,74.82
2022-10-17T00:25:21.861Z,75.01
2022-10-17T00:27:51.059Z,74.62
2022-10-17T00:30:20.159Z,75.01
2022-10-17T00:32:49.563Z,74.53
2022-10-17T00:35:18.926Z,74.69
2022-10-17T00:37:48.327Z,74.65
2022-10-17T00:40:17.010Z,74.69
2022-10-17T00:42:51.602Z,74.20
2022-10-17T00:45:25.604Z,74.05
2022-10-17T00:48:01.992Z,74.00
2022-10-17T00:50:31.453Z,74.11
2022-10-17T00:53:02.090Z,74.25
2022-10-17T00:55:33.111Z,74.11
2022-10-17T00:58:03.845Z,73.92
2022-10-17T01:00:33.343Z,74.35
2022-10-17T01:03:02.906Z,74.34
2022-10-17T01:05:32.608Z,73.82
2022-10-17T01:08:02.351Z,73.92
2022-10-17T01:10:33.497Z,74.50
2022-10-17T01:13:06.450Z,74.66
2022-10-17T01:15:41.768Z,74.91
2022-10-17T01:18:17.439Z,74.58
2022-10-17T01:20:53.179Z,74.74
2022-10-17T01:23:37.564Z,75.03
2022-10-17T01:26:19.894Z,75.11
2022-10-17T01:28:58.332Z,74.84
2022-10-17T01:31:33.143Z,74.31
2022-10-17T01:34:09.073Z,74.15
2022-10-17T01:36:41.493Z,73.81
2022-10-17T01:39:11.099Z,74.27
2022-10-17T01:41:43.952Z,74.12
2022-10-17T01:44:21.221Z,74.35
2022-10-17T01:46:53.179Z,74.53
2022-10-17T01:49:24.997Z,74.36
2022-10-17T01:51:59.596Z,74.55
2022-10-17T01:54:48.112Z,74.86
2022-10-17T01:57:24.082Z,74.48
2022-10-17T01:59:56.327Z,74.25
2022-10-17T02:02:26.988Z,74.13
2022-10-17T02:04:58.404Z,74.46
2022-10-17T02:07:27.634Z,74.53
2022-10-17T02:09:57.281Z,74.33
2022-10-17T02:12:38.120Z,74.34
2022-10-17T02:15:34.480Z,74.53
2022-10-17T02:18:04.127Z,74.49
2022-10-17T02:20:55.612Z,74.71
2022-10-17T02:23:34.084Z,74.57
2022-10-17T02:26:12.577Z,74.58
2022-10-17T02:29:13.977Z,74.38
2022-10-17T02:32:01.825Z,74.34
2022-10-17T02:34:35.055Z,74.05
2022-10-17T02:37:06.661Z,74.41
2022-10-17T02:39:36.946Z,74.81
2022-10-17T02:42:09.146Z,75.05
2022-10-17T02:44:40.126Z,74.85
2022-10-17T02:47:17.003Z,74.85
2022-10-17T02:49:51.829Z,74.84
2022-10-17T02:52:21.703Z,74.93
2022-10-17T02:55:02.810Z,75.05
2022-10-17T02:57:37.657Z,75.00
2022-10-17T03:00:09.602Z,74.78
2022-10-17T03:02:40.563Z,75.44
2022-10-17T03:05:12.487Z,75.25
2022-10-17T03:07:42.256Z,75.13
2022-10-17T03:10:11.698Z,75.15
2022-10-17T03:12:41.274Z,75.18
2022-10-17T03:15:10.862Z,75.02
2022-10-17T03:17:40.293Z,75.20
2022-10-17T03:20:09.774Z,75.33
2022-10-17T03:22:39.923Z,75.44
2022-10-17T03:25:09.351Z,75.25
2022-10-17T03:27:39.170Z,75.29
2022-10-17T03:30:09.516Z,75.12
2022-10-17T03:32:38.231Z,75.24
2022-10-17T03:35:10.174Z,75.51
2022-10-17T03:37:43.789Z,75.77
2022-10-17T03:40:13.709Z,75.56
2022-10-17T03:42:43.638Z,75.41
2022-10-17T03:45:13.008Z,75.61
2022-10-17T03:47:43.225Z,75.93
2022-10-17T03:50:13.000Z,75.97
2022-10-17T03:52:41.774Z,76.00
2022-10-17T03:55:11.551Z,75.87
2022-10-17T03:57:43.451Z,75.80
2022-10-17T04:00:17.654Z,75.93
2022-10-17T04:02:52.153Z,76.14
2022-10-17T04:05:21.402Z,76.30
2022-10-17T04:07:50.949Z,76.41
2022-10-17T04:10:24.071Z,76.37
2022-10-17T04:12:55.350Z,76.20
2022-10-17T04:15:24.784Z,76.15
2022-10-17T04:17:56.372Z,76.10
2022-10-17T04:20:26.002Z,75.67
2022-10-17T04:22:55.385Z,75.81
2022-10-17T04:25:24.483Z,75.65
2022-10-17T04:27:54.197Z,75.87
2022-10-17T04:30:23.450Z,75.92
2022-10-17T04:32:52.833Z,75.91
2022-10-17T04:35:24.435Z,75.85
2022-10-17T04:37:59.731Z,75.45
2022-10-17T04:40:28.998Z,75.96
2022-10-17T04:42:58.405Z,76.41
2022-10-17T04:45:33.955Z,75.72
2022-10-17T04:48:04.660Z,75.13
2022-10-17T04:50:34.168Z,74.88
2022-10-17T04:53:28.544Z,75.23
2022-10-17T04:55:58.004Z,75.15
2022-10-17T04:58:30.398Z,75.14
2022-10-17T05:00:59.770Z,75.31
2022-10-17T05:03:31.491Z,75.55
2022-10-17T05:06:04.180Z,75.96
2022-10-17T05:08:35.401Z,76.11
2022-10-17T05:11:06.192Z,76.02
2022-10-17T05:13:35.413Z,76.11
2022-10-17T05:16:04.705Z,76.59
2022-10-17T05:18:34.057Z,76.90
2022-10-17T05:21:06.655Z,76.56
2022-10-17T05:23:38.462Z,76.67
2022-10-17T05:26:09.634Z,76.76
2022-10-17T05:28:39.294Z,77.33
2022-10-17T05:31:10.836Z,77.47
2022-10-17T05:33:41.128Z,77.55
2022-10-17T05:36:10.116Z,77.74
2022-10-17T05:38:39.417Z,77.78
2022-10-17T05:41:10.027Z,78.11
2022-10-17T05:43:40.540Z,77.95
2022-10-17T05:46:10.114Z,77.75
2022-10-17T05:48:38.493Z,78.09
2022-10-17T05:51:09.171Z,77.96
2022-10-17T05:53:39.963Z,78.12
2022-10-17T05:56:12.792Z,78.06
2022-10-17T05:58:52.425Z,78.04
2022-10-17T06:01:44.287Z,78.00
2022-10-17T06:04:14.419Z,77.67
2022-10-17T06:06:44.446Z,77.87
2022-10-17T06:09:14.988Z,78.40
2022-10-17T06:11:47.129Z,78.59
2022-10-17T06:14:17.476Z,78.41
2022-10-17T06:16:47.355Z,78.32
2022-10-17T06:19:18.766Z,78.37
2022-10-17T06:21:49.250Z,77.79
2022-10-17T06:24:22.592Z,78.02
2022-10-17T06:26:54.573Z,78.16
2022-10-17T06:29:24.453Z,78.05
2022-10-17T06:31:54.748Z,77.59
2022-10-17T06:34:24.028Z,77.63
2022-10-17T06:36:53.380Z,76.92
2022-10-17T06:39:22.501Z,76.89
2022-10-17T06:42:00.865Z,76.71
2022-10-17T06:44:48.360Z,76.95
2022-10-17T06:47:41.719Z,76.50
2022-10-17T06:50:32.156Z,76.17
2022-10-17T06:53:32.688Z,75.31
2022-10-17T06:56:30.189Z,75.31
2022-10-17T06:59:19.618Z,75.47
2022-10-17T07:02:02.190Z,75.40
2022-10-17T07:04:32.507Z,75.19
2022-10-17T07:07:03.449Z,74.85
2022-10-17T07:09:34.590Z,74.45
2022-10-17T07:12:07.105Z,74.59
2022-10-17T07:14:37.173Z,74.43
2022-10-17T07:17:06.586Z,74.31
2022-10-17T07:19:35.924Z,74.06
2022-10-17T07:22:05.913Z,73.71
2022-10-17T07:24:37.947Z,72.41
2022-10-17T07:27:32.722Z,72.40
2022-10-17T07:30:02.514Z,71.62
2022-10-17T07:32:43.969Z,70.90
2022-10-17T07:35:14.101Z,71.13
2022-10-17T07:37:43.856Z,70.18
2022-10-17T07:40:13.633Z,70.10
2022-10-17T07:42:42.848Z,69.66
2022-10-17T07:45:12.917Z,68.28
2022-10-17T07:47:43.350Z,68.20
2022-10-17T07:50:14.088Z,67.95
2022-10-17T07:52:43.857Z,67.83
2022-10-17T07:55:13.192Z,67.51
2022-10-17T07:57:42.616Z,66.78
2022-10-17T08:00:13.355Z,65.54
2022-10-17T08:02:43.626Z,64.99
2022-10-17T08:05:13.184Z,63.94
2022-10-17T08:07:43.148Z,63.80
2022-10-17T08:10:14.118Z,61.85
2022-10-17T08:12:43.394Z,60.55
2022-10-17T08:15:16.127Z,60.67
2022-10-17T08:17:46.128Z,60.66
2022-10-17T08:20:15.267Z,61.02
2022-10-17T08:22:51.981Z,59.87
2022-10-17T08:25:21.165Z,59.24
2022-10-17T08:27:50.484Z,59.75
2022-10-17T08:30:19.685Z,59.47
2022-10-17T08:32:48.892Z,57.95
2022-10-17T08:35:18.043Z,56.77
2022-10-17T08:37:47.338Z,56.89
2022-10-17T08:40:25.578Z,53.84
2022-10-17T08:42:57.689Z,55.18
2022-10-17T08:45:39.599Z,55.85
2022-10-17T08:48:14.924Z,54.81
2022-10-17T08:50:50.603Z,55.27
2022-10-17T08:53:41.764Z,55.46
2022-10-17T08:56:43.979Z,54.16
2022-10-17T08:59:14.542Z,52.94
2022-10-17T09:01:48.958Z,53.43
2022-10-17T09:04:37.694Z,51.82
2022-10-17T09:07:06.799Z,51.26
2022-10-17T09:09:42.353Z,49.46
2022-10-17T09:12:32.547Z,48.71
2022-10-17T09:15:06.128Z,49.28
2022-10-17T09:17:53.484Z,49.02
2022-10-17T09:20:24.347Z,46.88
2022-10-17T09:23:13.927Z,46.25
2022-10-17T09:25:47.876Z,45.61
2022-10-17T09:28:20.097Z,45.74
2022-10-17T09:30:58.635Z,45.12
2022-10-17T09:33:53.276Z,44.67
2022-10-17T09:36:33.936Z,42.43
2022-10-17T09:39:03.552Z,42.65
2022-10-17T09:41:46.837Z,41.67
2022-10-17T09:44:22.240Z,41.43
2022-10-17T09:47:06.764Z,41.19
2022-10-17T09:49:39.817Z,41.16
2022-10-17T09:52:31.098Z,39.66
2022-10-17T09:55:01.142Z,39.13
2022-10-17T09:57:51.184Z,38.88
2022-10-17T10:00:26.341Z,39.36
2022-10-17T10:03:16.570Z,38.46
2022-10-17T10:06:04.601Z,38.70
2022-10-17T10:08:37.464Z,38.86
2022-10-17T10:11:13.399Z,39.12
2022-10-17T10:13:44.026Z,37.67
2022-10-17T10:16:24.692Z,37.43
2022-10-17T10:18:53.894Z,37.65
2022-10-17T10:21:24.502Z,37.82
2022-10-17T10:24:05.968Z,36.44
2022-10-17T10:26:43.721Z,34.79
2022-10-17T10:29:21.235Z,35.40
2022-10-17T10:31:51.713Z,34.99
2022-10-17T10:34:29.432Z,34.83
2022-10-17T10:37:00.717Z,34.45
2022-10-17T10:39:30.362Z,34.48
2022-10-17T10:42:01.634Z,33.83
2022-10-17T10:44:33.173Z,33.53
2022-10-17T10:47:09.905Z,33.83
2022-10-17T10:49:40.234Z,33.25
2022-10-17T10:52:16.434Z,32.97
2022-10-17T10:54:50.302Z,32.53
2022-10-17T10:57:21.877Z,34.09
2022-10-17T10:59:56.354Z,33.22
2022-10-17T11:02:30.905Z,32.87
2022-10-17T11:05:03.142Z,32.17
2022-10-17T11:07:40.687Z,31.81
2022-10-17T11:10:10.646Z,32.50
2022-10-17T11:12:46.964Z,32.13
2022-10-17T11:15:28.747Z,30.86
2022-10-17T11:18:04.170Z,31.44
2022-10-17T11:20:53.839Z,31.60
2022-10-17T11:23:27.148Z,31.09
2022-10-17T11:25:59.224Z,31.16
2022-10-17T11:28:30.103Z,29.87
2022-10-17T11:30:58.467Z,29.49
2022-10-17T11:33:30.092Z,29.96
2022-10-17T11:36:03.880Z,29.42
2022-10-17T11:38:40.745Z,29.14
2022-10-17T11:41:13.115Z,28.68
2022-10-17T11:43:51.035Z,27.29
2022-10-17T11:46:24.455Z,27.63
2022-10-17T11:49:07.023Z,28.74
2022-10-17T11:52:01.503Z,27.81
2022-10-17T11:54:38.370Z,28.07
2022-10-17T11:57:14.804Z,28.24
2022-10-17T11:59:44.608Z,27.22
2022-10-17T12:02:26.857Z,26.73
2022-10-17T12:05:10.938Z,26.89
2022-10-17T12:07:51.410Z,27.22
2022-10-17T12:10:34.668Z,26.44
2022-10-17T12:13:22.042Z,26.28
2022-10-17T12:15:52.906Z,25.95
2022-10-17T12:18:25.414Z,25.67
2022-10-17T12:20:59.117Z,25.39
2022-10-17T12:23:27.701Z,26.06
2022-10-17T12:26:04.818Z,26.07
2022-10-17T12:28:35.634Z,26.42
2022-10-17T12:31:11.056Z,26.37
2022-10-17T12:33:49.630Z,26.97
2022-10-17T12:36:18.829Z,27.13
2022-10-17T12:38:50.217Z,26.72
2022-10-17T12:41:37.891Z,27.39
2022-10-17T12:44:28.749Z,27.08
2022-10-17T12:47:11.172Z,27.38
2022-10-17T12:49:44.078Z,27.21
2022-10-17T12:52:23.633Z,28.02
2022-10-17T12:55:00.587Z,28.38
2022-10-17T12:58:01.788Z,28.11
2022-10-17T13:00:49.801Z,27.72
2022-10-17T13:03:31.681Z,28.15
2022-10-17T13:06:02.615Z,29.02
2022-10-17T13:08:36.152Z,30.00
2022-10-17T13:11:24.759Z,29.43
2022-10-17T13:13:55.467Z,29.10
2022-10-17T13:16:38.661Z,29.62
2022-10-17T13:19:15.309Z,29.76
2022-10-17T13:22:02.261Z,30.55
2022-10-17T13:24:39.674Z,30.93
2022-10-17T13:27:23.354Z,33.35
2022-10-17T13:29:52.912Z,32.39
2022-10-17T13:32:23.013Z,31.71
2022-10-17T13:35:11.048Z,32.14
2022-10-17T13:37:43.001Z,30.65
2022-10-17T13:40:44.102Z,31.39
2022-10-17T13:43:17.623Z,31.78
2022-10-17T13:45:49.778Z,32.39
2022-10-17T13:48:25.338Z,33.11
2022-10-17T13:50:59.246Z,33.18
2022-10-17T13:53:32.956Z,33.30
2022-10-17T13:56:26.418Z,34.30
2022-10-17T13:58:56.633Z,34.42
2022-10-17T14:01:27.376Z,34.82
2022-10-17T14:04:08.348Z,33.93
2022-10-17T14:06:49.428Z,34.64
2022-10-17T14:09:25.708Z,34.86
2022-10-17T14:12:00.525Z,34.80
2022-10-17T14:14:32.139Z,34.53
2022-10-17T14:17:38.902Z,34.22
2022-10-17T14:23:21.894Z,33.98
2022-10-17T14:26:04.446Z,34.67
2022-10-17T14:28:34.090Z,34.40
2022-10-17T14:31:14.366Z,34.53
2022-10-17T14:33:49.675Z,34.86
2022-10-17T14:36:21.555Z,35.28
2022-10-17T14:38:52.247Z,35.71
2022-10-17T14:41:43.610Z,35.50
2022-10-17T14:44:24.505Z,35.79
2022-10-17T14:46:54.989Z,35.82
2022-10-17T14:49:29.920Z,36.11
2022-10-17T14:52:15.134Z,36.35
2022-10-17T14:54:48.493Z,36.83
2022-10-17T14:57:20.454Z,36.93
2022-10-17T14:59:54.569Z,37.21
2022-10-17T15:02:26.347Z,37.63
2022-10-17T15:04:55.776Z,38.04
2022-10-17T15:07:25.014Z,38.76
2022-10-17T15:09:54.385Z,39.76
2022-10-17T15:12:25.555Z,41.07
2022-10-17T15:14:54.832Z,42.65
2022-10-17T15:17:31.285Z,43.17
2022-10-17T15:20:00.807Z,43.31
2022-10-17T15:22:32.053Z,43.88
2022-10-17T15:25:01.555Z,44.48
2022-10-17T15:27:33.081Z,44.88
2022-10-17T15:30:02.337Z,45.16
2022-10-17T15:32:31.468Z,45.62
2022-10-17T15:35:01.131Z,46.08
2022-10-17T15:37:33.760Z,46.53
2022-10-17T15:40:06.474Z,46.72
2022-10-17T15:42:35.701Z,46.94
2022-10-17T15:45:04.158Z,47.01
2022-10-17T15:47:34.274Z,47.13
2022-10-17T15:50:05.130Z,47.47
2022-10-17T15:52:35.168Z,47.52
2022-10-17T15:55:08.365Z,47.83
2022-10-17T15:57:39.703Z,48.39
2022-10-17T16:00:20.612Z,49.18
2022-10-17T16:02:50.529Z,49.63
2022-10-17T16:05:23.654Z,49.97
2022-10-17T16:07:54.304Z,50.38
2022-10-17T16:10:23.745Z,50.48
2022-10-17T16:12:53.275Z,50.80
2022-10-17T16:15:26.956Z,51.31
2022-10-17T16:17:56.914Z,51.56
2022-10-17T16:20:27.126Z,51.87
2022-10-17T16:23:01.091Z,52.66
2022-10-17T16:25:31.016Z,53.28
2022-10-17T16:28:00.629Z,54.04
2022-10-17T16:30:30.776Z,54.17
2022-10-17T16:33:00.026Z,54.56
2022-10-17T16:35:33.182Z,54.68
2022-10-17T16:38:08.135Z,55.06
2022-10-17T16:40:39.022Z,55.22
2022-10-17T16:43:12.347Z,55.59
2022-10-17T16:45:42.105Z,56.06
2022-10-17T16:48:12.612Z,56.69
2022-10-17T16:50:42.334Z,57.01
2022-10-17T16:53:11.993Z,57.45
2022-10-17T16:55:45.023Z,57.34
2022-10-17T16:58:14.612Z,57.73
2022-10-17T17:00:44.171Z,57.84
2022-10-17T17:03:13.619Z,58.44
2022-10-17T17:05:42.513Z,58.76
2022-10-17T17:08:12.746Z,59.23
2022-10-17T17:10:46.177Z,59.20
2022-10-17T17:13:16.417Z,58.78
2022-10-17T17:15:46.415Z,59.04
2022-10-17T17:18:16.093Z,59.06
2022-10-17T17:20:45.512Z,59.31
2022-10-17T17:23:15.998Z,60.02
2022-10-17T17:25:47.840Z,60.29
2022-10-17T17:28:17.058Z,60.10
2022-10-17T17:30:46.667Z,60.07
2022-10-17T17:33:16.394Z,60.75
2022-10-17T17:35:45.713Z,61.17
2022-10-17T17:38:14.959Z,61.58
2022-10-17T17:40:50.474Z,62.49
2022-10-17T17:43:21.189Z,62.37
2022-10-17T17:45:50.654Z,62.20
2022-10-17T17:48:20.680Z,61.79
2022-10-17T17:50:49.427Z,62.49
2022-10-17T17:53:20.488Z,62.85
2022-10-17T17:56:01.205Z,63.20
2022-10-17T17:58:30.805Z,63.45
2022-10-17T18:01:00.849Z,63.61
2022-10-17T18:03:30.221Z,63.59
2022-10-17T18:06:01.967Z,63.58
2022-10-17T18:08:31.691Z,64.24
2022-10-17T18:11:01.469Z,64.33
2022-10-17T18:13:31.128Z,64.54
2022-10-17T18:16:01.661Z,64.58
2022-10-17T18:18:30.941Z,64.15
2022-10-17T18:21:01.445Z,64.61
2022-10-17T18:23:31.428Z,64.72
2022-10-17T18:26:01.422Z,64.72
2022-10-17T18:28:30.886Z,64.49
2022-10-17T18:31:04.693Z,64.81
2022-10-17T18:33:35.024Z,64.85
2022-10-17T18:36:09.308Z,64.50
2022-10-17T18:38:38.361Z,65.04
2022-10-17T18:41:11.706Z,65.60
2022-10-17T18:43:41.946Z,65.47
2022-10-17T18:46:24.198Z,66.03
2022-10-17T18:48:53.929Z,65.92
2022-10-17T18:51:24.117Z,66.21
2022-10-17T18:53:55.064Z,66.48
2022-10-17T18:56:24.989Z,66.16
2022-10-17T18:58:54.511Z,66.24
2022-10-17T19:01:25.884Z,65.69
2022-10-17T19:03:56.801Z,65.65
2022-10-17T19:06:27.915Z,65.34
2022-10-17T19:08:56.269Z,65.63
2022-10-17T19:11:26.434Z,66.38
2022-10-17T19:13:58.888Z,66.81
2022-10-17T19:16:29.878Z,66.84
2022-10-17T19:19:08.898Z,67.05
2022-10-17T19:21:38.662Z,67.26
2022-10-17T19:24:09.555Z,67.27
2022-10-17T19:26:40.198Z,66.80
2022-10-17T19:29:10.928Z,66.71
2022-10-17T19:31:42.477Z,67.30
2022-10-17T19:34:15.023Z,67.48
2022-10-17T19:36:45.054Z,67.92
2022-10-17T19:39:16.191Z,67.61
2022-10-17T19:41:46.499Z,67.51
2022-10-17T19:44:16.359Z,67.39
2022-10-17T19:46:47.174Z,67.39
2022-10-17T19:49:16.980Z,68.03
2022-10-17T19:51:46.121Z,67.98
2022-10-17T19:54:18.628Z,67.63
2022-10-17T19:56:47.908Z,68.02
2022-10-17T19:59:17.672Z,67.83
2022-10-17T20:01:47.050Z,67.65
2022-10-17T20:04:16.126Z,67.88
2022-10-17T20:06:45.236Z,68.62
2022-10-17T20:09:16.907Z,68.92
2022-10-17T20:11:46.795Z,68.79
2022-10-17T20:14:16.030Z,68.71
2022-10-17T20:16:50.420Z,69.10
2022-10-17T20:19:20.351Z,69.27
2022-10-17T20:21:48.794Z,69.60
2022-10-17T20:24:18.115Z,69.61
2022-10-17T20:26:47.297Z,69.81
2022-10-17T20:29:18.327Z,69.84
2022-10-17T20:31:48.381Z,69.64
2022-10-17T20:34:18.261Z,69.77
2022-10-17T20:36:48.033Z,69.73
2022-10-17T20:39:18.629Z,69.82
2022-10-17T20:41:47.759Z,69.77
2022-10-17T20:44:16.932Z,70.01
2022-10-17T20:47:00.774Z,69.73
2022-10-17T20:49:33.326Z,69.31
2022-10-17T20:52:02.085Z,69.30
2022-10-17T20:54:33.517Z,69.33
2022-10-17T20:57:04.950Z,69.20
2022-10-17T20:59:36.440Z,69.29
2022-10-17T21:02:06.372Z,69.38
2022-10-17T21:04:51.222Z,69.92
2022-10-17T21:07:22.607Z,70.00
2022-10-17T21:09:51.927Z,70.11
2022-10-17T21:12:31.050Z,70.22
2022-10-17T21:15:08.154Z,69.99
2022-10-17T21:17:37.914Z,70.03
2022-10-17T21:20:07.548Z,70.64
2022-10-17T21:22:37.264Z,70.80
2022-10-17T21:25:07.334Z,70.71
2022-10-17T21:27:37.139Z,70.86
2022-10-17T21:32:51.098Z,70.89
2022-10-17T21:35:22.452Z,71.05
2022-10-17T21:37:52.097Z,71.22
2022-10-17T21:40:22.000Z,71.10
2022-10-17T21:42:51.392Z,71.21
2022-10-17T21:45:25.885Z,70.88
2022-10-17T21:48:12.093Z,70.88
2022-10-17T21:50:47.356Z,71.11
2022-10-17T21:53:16.943Z,71.20
2022-10-17T21:55:46.568Z,71.32
2022-10-17T21:58:16.612Z,71.29
2022-10-17T22:00:46.625Z,71.09
2022-10-17T22:03:17.435Z,71.21
2022-10-17T22:05:46.842Z,71.32
2022-10-17T22:08:16.650Z,71.16
2022-10-17T22:10:46.295Z,71.33
2022-10-17T22:13:16.039Z,71.59
2022-10-17T22:15:45.429Z,71.44
2022-10-17T22:18:15.174Z,71.31
2022-10-17T22:20:43.812Z,71.32
2022-10-17T22:23:13.580Z,71.50
2022-10-17T22:25:43.452Z,71.54
2022-10-17T22:28:13.402Z,71.74
2022-10-17T22:30:43.604Z,71.71
2022-10-17T22:33:13.127Z,71.75
2022-10-17T22:35:45.831Z,72.08
2022-10-17T22:38:37.105Z,72.06
2022-10-17T22:41:06.447Z,71.92
2022-10-17T22:43:35.733Z,72.07
2022-10-17T22:46:06.194Z,72.25
2022-10-17T22:48:35.649Z,72.20
2022-10-17T22:51:05.083Z,72.17
2022-10-17T22:53:35.630Z,72.09
2022-10-17T22:56:15.952Z,72.00
2022-10-17T22:58:45.574Z,72.35
2022-10-17T23:01:18.500Z,72.37
2022-10-17T23:03:48.712Z,72.44
2022-10-17T23:06:17.913Z,72.47
2022-10-17T23:08:48.083Z,72.51
2022-10-17T23:11:17.866Z,72.25
2022-10-17T23:13:47.360Z,72.90
2022-10-17T23:16:16.653Z,72.89
2022-10-17T23:18:46.020Z,72.85
2022-10-17T23:21:14.800Z,72.52
2022-10-17T23:23:44.149Z,72.77
2022-10-17T23:26:14.314Z,73.06
2022-10-17T23:28:43.732Z,73.27
2022-10-17T23:31:17.159Z,73.48
2022-10-17T23:33:49.109Z,73.60
2022-10-17T23:36:18.820Z,74.06
2022-10-17T23:38:48.857Z,73.56
2022-10-17T23:41:18.068Z,73.79
2022-10-17T23:43:47.462Z,73.78
2022-10-17T23:46:16.686Z,73.54
2022-10-17T23:48:46.177Z,73.42
2022-10-17T23:51:15.455Z,73.41
2022-10-17T23:53:44.823Z,73.91
2022-10-17T23:56:16.021Z,73.93
2022-10-17T23:58:45.239Z,73.88
